createdAt,value
2022-10-16T00:02:00.022Z,13.66
2022-10-16T00:07:04.043Z,13.62
2022-10-16T00:12:07.611Z,13.58
2022-10-16T00:17:10.207Z,13.54
2022-10-16T00:22:14.066Z,13.54
2022-10-16T00:27:17.496Z,13.51
2022-10-16T00:32:20.644Z,13.63
2022-10-16T00:37:24.506Z,13.44
2022-10-16T00:42:27.412Z,13.44
2022-10-16T00:47:33.250Z,13.41
2022-10-16T00:52:37.219Z,13.42
2022-10-16T00:57:40.684Z,13.41
2022-10-16T01:02:43.392Z,13.33
2022-10-16T01:07:53.660Z,13.31
2022-10-16T01:13:01.047Z,13.27
2022-10-16T01:18:09.208Z,13.32
2022-10-16T01:23:21.289Z,13.24
2022-10-16T01:28:31.131Z,13.36
2022-10-16T01:33:37.919Z,13.31
2022-10-16T01:38:41.295Z,13.23
2022-10-16T01:43:48.582Z,13.08
2022-10-16T01:48:51.775Z,13.03
2022-10-16T01:53:56.449Z,12.98
2022-10-16T01:59:04.012Z,12.73
2022-10-16T02:04:10.141Z,12.71
2022-10-16T02:09:12.856Z,12.84
2022-10-16T02:14:17.023Z,12.90
2022-10-16T02:19:21.079Z,12.95
2022-10-16T02:24:30.809Z,13.05
2022-10-16T02:29:36.712Z,13.02
2022-10-16T02:34:39.688Z,12.98
2022-10-16T02:39:43.196Z,12.95
2022-10-16T02:44:47.116Z,12.83
2022-10-16T02:49:49.647Z,12.82
2022-10-16T02:54:52.473Z,12.92
2022-10-16T02:59:56.398Z,12.92
2022-10-16T03:04:58.930Z,12.90
2022-10-16T03:10:01.752Z,12.82
2022-10-16T03:15:06.156Z,12.87
2022-10-16T03:20:09.433Z,12.70
2022-10-16T03:25:11.993Z,12.70
2022-10-16T03:30:16.294Z,12.74
2022-10-16T03:35:18.865Z,12.75
2022-10-16T03:40:21.851Z,12.72
2022-10-16T03:45:25.832Z,12.77
2022-10-16T03:50:28.381Z,12.77
2022-10-16T03:55:30.958Z,12.98
2022-10-16T04:00:35.313Z,12.86
2022-10-16T04:05:37.944Z,12.95
2022-10-16T04:10:40.544Z,13.11
2022-10-16T04:15:44.435Z,12.92
2022-10-16T04:20:47.124Z,13.00
2022-10-16T04:25:49.671Z,12.89
2022-10-16T04:30:53.571Z,12.95
2022-10-16T04:35:59.887Z,13.02
2022-10-16T04:41:02.469Z,12.96
2022-10-16T04:46:06.497Z,12.85
2022-10-16T04:51:09.166Z,12.95
2022-10-16T04:56:11.756Z,12.84
2022-10-16T05:01:15.790Z,12.91
2022-10-16T05:06:18.351Z,12.82
2022-10-16T05:11:20.939Z,12.80
2022-10-16T05:16:24.858Z,12.79
2022-10-16T05:21:27.412Z,12.77
2022-10-16T05:26:30.004Z,12.76
2022-10-16T05:31:33.893Z,12.75
2022-10-16T05:36:36.488Z,12.72
2022-10-16T05:41:39.178Z,12.72
2022-10-16T05:46:43.078Z,12.66
2022-10-16T05:51:45.658Z,12.69
2022-10-16T05:56:48.231Z,12.77
2022-10-16T06:01:52.124Z,12.67
2022-10-16T06:06:54.696Z,12.70
2022-10-16T06:11:57.336Z,12.54
2022-10-16T06:17:01.236Z,12.67
2022-10-16T06:22:05.237Z,12.72
2022-10-16T06:27:08.120Z,12.77
2022-10-16T06:32:12.297Z,12.70
2022-10-16T06:37:15.005Z,12.80
2022-10-16T06:42:17.552Z,12.80
2022-10-16T06:47:21.561Z,12.93
2022-10-16T06:52:24.608Z,12.97
2022-10-16T06:57:27.592Z,13.03
2022-10-16T07:02:31.592Z,13.10
2022-10-16T07:07:34.318Z,13.16
2022-10-16T07:12:36.870Z,13.11
2022-10-16T07:17:40.775Z,13.33
2022-10-16T07:22:43.336Z,13.38
2022-10-16T07:27:45.916Z,13.48
2022-10-16T07:32:49.808Z,13.55
2022-10-16T07:37:52.392Z,13.74
2022-10-16T07:42:55.085Z,14.21
2022-10-16T07:47:59.040Z,14.33
2022-10-16T07:53:01.610Z,14.23
2022-10-16T07:58:04.272Z,14.39
2022-10-16T08:03:08.158Z,14.07
2022-10-16T08:08:14.276Z,14.10
2022-10-16T08:13:16.840Z,14.00
2022-10-16T08:18:20.722Z,14.28
2022-10-16T08:23:23.288Z,14.35
2022-10-16T08:28:26.075Z,14.42
2022-10-16T08:33:29.996Z,14.88
2022-10-16T08:38:32.562Z,15.19
2022-10-16T08:43:46.468Z,15.28
2022-10-16T08:48:52.278Z,15.24
2022-10-16T08:53:57.693Z,15.62
2022-10-16T08:59:02.909Z,15.53
2022-10-16T09:04:54.172Z,15.79
2022-10-16T09:10:16.972Z,15.92
2022-10-16T09:15:27.229Z,16.04
2022-10-16T09:20:39.644Z,16.10
2022-10-16T09:25:45.149Z,16.13
2022-10-16T09:30:49.519Z,16.32
2022-10-16T09:35:55.658Z,16.48
2022-10-16T09:41:03.202Z,16.44
2022-10-16T09:46:07.662Z,16.49
2022-10-16T09:51:21.239Z,16.61
2022-10-16T09:56:25.411Z,16.70
2022-10-16T10:01:32.682Z,16.71
2022-10-16T10:06:38.899Z,16.74
2022-10-16T10:11:44.495Z,16.90
2022-10-16T10:16:47.634Z,16.91
2022-10-16T10:21:52.486Z,17.01
2022-10-16T10:27:07.532Z,17.04
2022-10-16T10:32:19.475Z,16.89
2022-10-16T10:37:35.912Z,17.22
2022-10-16T10:42:43.208Z,17.06
2022-10-16T10:47:54.114Z,17.20
2022-10-16T10:53:07.993Z,17.06
2022-10-16T10:58:32.209Z,17.00
2022-10-16T11:04:05.348Z,17.21
2022-10-16T11:09:13.700Z,17.36
2022-10-16T11:14:20.896Z,17.29
2022-10-16T11:19:30.958Z,17.49
2022-10-16T11:24:42.868Z,17.60
2022-10-16T11:29:49.702Z,17.61
2022-10-16T11:34:54.402Z,17.59
2022-10-16T11:40:02.031Z,17.48
2022-10-16T11:45:09.592Z,17.90
2022-10-16T11:50:19.230Z,18.03
2022-10-16T11:55:25.931Z,18.14
2022-10-16T12:00:30.835Z,17.69
2022-10-16T12:05:39.477Z,17.73
2022-10-16T12:10:45.154Z,17.70
2022-10-16T12:15:58.801Z,18.29
2022-10-16T12:21:06.444Z,18.32
2022-10-16T12:26:10.432Z,18.47
2022-10-16T12:31:13.273Z,17.64
2022-10-16T12:36:20.033Z,17.59
2022-10-16T12:41:29.662Z,17.72
2022-10-16T12:46:41.162Z,18.17
2022-10-16T12:51:44.600Z,17.85
2022-10-16T12:56:58.339Z,18.11
2022-10-16T13:02:26.368Z,18.29
2022-10-16T13:07:46.160Z,17.98
2022-10-16T13:13:24.214Z,18.17
2022-10-16T13:18:31.547Z,18.22
2022-10-16T13:23:40.300Z,18.50
2022-10-16T13:28:44.707Z,18.35
2022-10-16T13:33:51.551Z,18.10
2022-10-16T13:39:03.894Z,17.88
2022-10-16T13:44:13.924Z,17.99
2022-10-16T13:49:17.802Z,17.99
2022-10-16T13:54:20.448Z,17.94
2022-10-16T13:59:27.169Z,18.09
2022-10-16T14:04:34.218Z,17.96
2022-10-16T14:09:37.382Z,17.91
2022-10-16T14:14:45.107Z,17.96
2022-10-16T14:19:50.473Z,17.90
2022-10-16T14:24:56.005Z,17.89
2022-10-16T14:30:17.036Z,17.75
2022-10-16T14:35:31.863Z,17.71
2022-10-16T14:40:36.407Z,17.60
2022-10-16T14:45:42.737Z,17.40
2022-10-16T14:50:45.367Z,17.35
2022-10-16T14:55:49.193Z,17.40
2022-10-16T15:00:53.165Z,17.42
2022-10-16T15:05:55.728Z,17.39
2022-10-16T15:10:58.290Z,17.40
2022-10-16T15:16:02.348Z,17.20
2022-10-16T15:21:05.315Z,17.05
2022-10-16T15:26:07.963Z,16.91
2022-10-16T15:31:12.047Z,16.87
2022-10-16T15:36:14.632Z,16.93
2022-10-16T15:41:17.162Z,16.98
2022-10-16T15:46:22.709Z,16.90
2022-10-16T15:51:25.429Z,16.80
2022-10-16T15:56:29.352Z,16.74
2022-10-16T16:01:35.282Z,16.68
2022-10-16T16:06:40.143Z,16.56
2022-10-16T16:11:43.149Z,16.53
2022-10-16T16:16:47.048Z,16.47
2022-10-16T16:21:49.671Z,16.40
2022-10-16T16:26:52.259Z,16.38
2022-10-16T16:31:58.169Z,16.31
2022-10-16T16:37:00.768Z,16.30
2022-10-16T16:42:04.995Z,16.28
2022-10-16T16:47:08.889Z,16.24
2022-10-16T16:52:11.450Z,16.17
2022-10-16T16:57:13.999Z,16.17
2022-10-16T17:02:18.115Z,16.06
2022-10-16T17:07:24.071Z,16.00
2022-10-16T17:12:26.942Z,15.99
2022-10-16T17:17:30.863Z,15.99
2022-10-16T17:22:33.416Z,15.93
2022-10-16T17:27:36.300Z,15.92
2022-10-16T17:32:40.237Z,15.86
2022-10-16T17:37:42.799Z,15.83
2022-10-16T17:42:45.417Z,15.84
2022-10-16T17:47:49.342Z,15.82
2022-10-16T17:52:51.944Z,15.83
2022-10-16T17:57:54.498Z,15.75
2022-10-16T18:02:58.517Z,15.73
2022-10-16T18:08:01.058Z,15.71
2022-10-16T18:13:03.947Z,15.72
2022-10-16T18:18:07.887Z,15.72
2022-10-16T18:23:11.458Z,15.68
2022-10-16T18:28:14.052Z,15.68
2022-10-16T18:33:17.943Z,15.64
2022-10-16T18:38:21.206Z,15.57
2022-10-16T18:43:23.757Z,15.57
2022-10-16T18:48:28.117Z,15.55
2022-10-16T18:53:30.795Z,15.55
2022-10-16T18:58:34.966Z,15.50
2022-10-16T19:03:39.524Z,15.51
2022-10-16T19:08:42.572Z,15.49
2022-10-16T19:13:45.712Z,15.43
2022-10-16T19:18:50.544Z,15.41
2022-10-16T19:23:53.686Z,15.42
2022-10-16T19:28:58.354Z,15.39
2022-10-16T19:34:03.854Z,15.31
2022-10-16T19:39:09.115Z,15.28
2022-10-16T19:44:13.501Z,15.29
2022-10-16T19:49:21.384Z,15.29
2022-10-16T19:54:23.940Z,15.27
2022-10-16T19:59:26.816Z,15.27
2022-10-16T20:04:30.737Z,15.31
2022-10-16T20:09:35.227Z,15.31
2022-10-16T20:14:37.818Z,15.25
2022-10-16T20:19:41.772Z,15.07
2022-10-16T20:24:44.349Z,15.11
2022-10-16T20:29:46.939Z,15.03
2022-10-16T20:34:50.870Z,15.06
2022-10-16T20:39:53.463Z,15.01
2022-10-16T20:44:55.995Z,14.98
2022-10-16T20:49:59.892Z,14.83
2022-10-16T20:55:04.272Z,14.85
2022-10-16T21:00:07.963Z,14.71
2022-10-16T21:05:12.029Z,14.82
2022-10-16T21:10:14.615Z,14.72
2022-10-16T21:15:17.400Z,14.72
2022-10-16T21:20:21.323Z,14.67
2022-10-16T21:25:23.869Z,14.63
2022-10-16T21:30:26.499Z,14.60
2022-10-16T21:35:32.061Z,14.63
2022-10-16T21:40:34.900Z,14.61
2022-10-16T21:45:37.472Z,14.64
2022-10-16T21:50:41.343Z,14.66
2022-10-16T21:55:43.906Z,14.66
2022-10-16T22:00:46.442Z,14.59
2022-10-16T22:05:50.360Z,14.62
2022-10-16T22:10:52.908Z,14.54
2022-10-16T22:15:55.972Z,14.47
2022-10-16T22:21:00.087Z,14.45
2022-10-16T22:26:03.895Z,14.36
2022-10-16T22:31:08.554Z,14.35
2022-10-16T22:36:14.096Z,14.33
2022-10-16T22:41:17.163Z,14.29
2022-10-16T22:46:21.783Z,14.30
2022-10-16T22:51:26.359Z,14.27
2022-10-16T22:56:28.922Z,14.21
2022-10-16T23:01:34.170Z,14.24
2022-10-16T23:06:38.111Z,14.24
2022-10-16T23:11:40.706Z,14.19
2022-10-16T23:16:43.258Z,14.18
2022-10-16T23:21:47.148Z,14.18
2022-10-16T23:26:49.708Z,14.14
2022-10-16T23:31:52.280Z,14.06
2022-10-16T23:36:56.155Z,14.14
2022-10-16T23:41:58.729Z,14.05
2022-10-16T23:47:01.655Z,14.02
2022-10-16T23:52:07.111Z,14.07
2022-10-16T23:57:09.688Z,14.05
